Time;durP1;ratioP1;P1;durP2;ratioP2;P2;SDS_P1;SDS_P2;PMS_P1;PMS_P2;Temp;Humidity;BMP_temperature;BMP_pressure;BME280_temperature;BME280_humidity;BME280_pressure;Samples;Min_cycle;Max_cycle;Signal;HPM_P1;HPM_P2
2024/03/20 00:00:46;;;;;;;13.35;7.65;;;8.70;99.90;;;;;;4883645;29;20180;-86
2024/03/20 00:03:13;;;;;;;10.52;7.57;;;8.70;99.90;;;;;;4867087;29;20212;-88
2024/03/20 00:05:39;;;;;;;10.17;7.20;;;8.70;99.90;;;;;;4866917;29;20188;-85
2024/03/20 00:08:05;;;;;;;10.03;7.60;;;8.70;99.90;;;;;;4866589;29;20206;-86
2024/03/20 00:10:31;;;;;;;10.15;7.13;;;8.60;99.90;;;;;;4866463;29;20301;-86
2024/03/20 00:12:57;;;;;;;10.10;7.30;;;8.50;99.90;;;;;;4867104;29;20184;-87
2024/03/20 00:15:22;;;;;;;10.75;7.82;;;8.30;99.90;;;;;;4866768;29;20271;-86
2024/03/20 00:17:48;;;;;;;13.07;8.05;;;8.20;99.90;;;;;;4883603;29;20517;-86
2024/03/20 00:20:14;;;;;;;11.02;8.05;;;8.10;99.90;;;;;;4867057;29;20635;-85
2024/03/20 00:22:40;;;;;;;12.80;7.97;;;8.10;99.90;;;;;;4866602;29;20220;-86
2024/03/20 00:25:06;;;;;;;10.35;7.78;;;8.20;99.90;;;;;;4883538;29;20530;-86
2024/03/20 00:27:31;;;;;;;13.87;8.13;;;8.20;99.90;;;;;;4883003;29;20211;-86
2024/03/20 00:29:58;;;;;;;9.80;7.68;;;8.20;99.90;;;;;;4866779;29;20211;-86
2024/03/20 00:32:24;;;;;;;13.52;8.23;;;8.10;99.90;;;;;;4883338;29;20778;-86
2024/03/20 00:34:49;;;;;;;11.80;7.72;;;8.10;99.90;;;;;;4866551;29;20299;-86
2024/03/20 00:37:15;;;;;;;11.70;7.72;;;8.10;99.90;;;;;;4866782;29;20184;-86
2024/03/20 00:39:41;;;;;;;12.75;8.43;;;8.10;99.90;;;;;;4866299;29;20196;-85
2024/03/20 00:42:07;;;;;;;11.57;7.95;;;8.10;99.90;;;;;;4882448;29;20184;-85
2024/03/20 00:44:36;;;;;;;10.13;7.53;;;8.20;99.90;;;;;;4866362;29;20184;-86
2024/03/20 00:47:05;;;;;;;16.80;8.00;;;8.20;99.90;;;;;;4866043;29;20188;-86
2024/03/20 00:49:32;;;;;;;10.17;7.87;;;8.20;99.90;;;;;;4866086;29;20695;-86
2024/03/20 00:51:58;;;;;;;12.23;8.33;;;8.20;99.90;;;;;;4882820;29;20507;-86
2024/03/20 00:54:25;;;;;;;10.47;7.87;;;8.20;99.90;;;;;;4882575;29;20191;-86
2024/03/20 00:56:51;;;;;;;10.40;7.97;;;8.10;99.90;;;;;;4882194;29;20160;-86
2024/03/20 00:59:17;;;;;;;14.37;8.80;;;8.00;99.90;;;;;;4881729;29;20258;-86
2024/03/20 01:01:43;;;;;;;11.80;8.35;;;7.90;99.90;;;;;;4865685;29;20249;-85
2024/03/20 01:04:12;;;;;;;18.37;8.70;;;7.90;99.90;;;;;;4882487;29;20223;-85
2024/03/20 01:06:38;;;;;;;12.30;8.23;;;7.90;99.90;;;;;;4865599;29;20186;-86
2024/03/20 01:09:05;;;;;;;11.32;8.68;;;7.90;99.90;;;;;;4865520;29;20239;-85
2024/03/20 01:11:31;;;;;;;11.93;8.73;;;7.90;99.90;;;;;;4865275;29;20537;-86
2024/03/20 01:13:57;;;;;;;16.00;8.23;;;7.90;99.90;;;;;;4881941;29;20186;-86
2024/03/20 01:16:28;;;;;;;11.25;7.97;;;8.00;99.90;;;;;;4865442;29;20176;-87
2024/03/20 01:18:54;;;;;;;11.77;8.35;;;8.00;99.90;;;;;;4865669;29;20898;-85
2024/03/20 01:21:20;;;;;;;10.75;7.68;;;8.00;99.90;;;;;;4881947;29;20679;-86
2024/03/20 01:23:46;;;;;;;11.77;8.60;;;7.90;99.90;;;;;;4865430;29;20318;-86
2024/03/20 01:26:13;;;;;;;11.10;7.93;;;7.90;99.90;;;;;;4865413;29;20680;-85
2024/03/20 01:28:38;;;;;;;14.83;7.90;;;7.90;99.90;;;;;;4882215;29;20180;-86
2024/03/20 01:31:04;;;;;;;13.70;8.02;;;7.90;99.90;;;;;;4882267;29;20247;-87
2024/03/20 01:33:30;;;;;;;12.25;9.07;;;7.90;99.90;;;;;;4865361;29;20651;-85
2024/03/20 01:35:56;;;;;;;10.30;8.45;;;7.80;99.90;;;;;;4865276;29;20244;-86
2024/03/20 01:38:22;;;;;;;11.97;8.53;;;7.80;99.90;;;;;;4865414;29;20555;-86
2024/03/20 01:40:48;;;;;;;12.10;8.18;;;7.80;99.90;;;;;;4881807;29;20191;-86
2024/03/20 01:43:19;;;;;;;13.75;8.68;;;7.80;99.90;;;;;;4865241;29;20869;-85
2024/03/20 01:45:48;;;;;;;10.43;8.35;;;7.80;99.90;;;;;;4865382;29;20184;-86
2024/03/20 01:48:14;;;;;;;13.17;8.47;;;7.90;99.90;;;;;;4865349;29;20183;-87
2024/03/20 01:50:41;;;;;;;11.03;8.30;;;7.90;99.90;;;;;;4865249;29;20180;-87
2024/03/20 01:53:07;;;;;;;14.37;8.87;;;7.90;99.90;;;;;;4864688;29;20187;-86
2024/03/20 01:55:36;;;;;;;12.43;8.80;;;7.80;99.90;;;;;;4881085;29;20263;-87
2024/03/20 01:58:02;;;;;;;13.27;8.55;;;7.80;99.90;;;;;;4881508;29;20592;-86
2024/03/20 02:00:27;;;;;;;12.93;9.35;;;7.80;99.90;;;;;;4864674;29;20191;-85
2024/03/20 02:03:03;;;;;;;14.93;9.50;;;7.80;99.90;;;;;;4864531;29;20212;-86
2024/03/20 02:05:30;;;;;;;12.85;9.00;;;7.80;99.90;;;;;;4881402;29;20176;-86
2024/03/20 02:07:57;;;;;;;11.10;8.63;;;7.80;99.90;;;;;;4881315;29;20172;-85
2024/03/20 02:10:24;;;;;;;12.40;9.50;;;7.70;99.90;;;;;;4881201;29;20242;-85
2024/03/20 02:13:06;;;;;;;12.40;8.93;;;7.70;99.90;;;;;;4881131;29;20191;-85
2024/03/20 02:15:33;;;;;;;14.67;9.60;;;7.70;99.90;;;;;;4881343;29;20301;-85
2024/03/20 02:18:00;;;;;;;13.13;8.63;;;7.70;99.90;;;;;;4864462;29;20627;-85
2024/03/20 02:20:26;;;;;;;13.00;9.93;;;7.70;99.90;;;;;;4864459;29;20215;-86
2024/03/20 02:22:52;;;;;;;12.13;8.77;;;7.70;99.90;;;;;;4864410;29;20306;-86
2024/03/20 02:25:28;;;;;;;12.43;8.90;;;7.80;99.90;;;;;;4863922;29;20927;-86
2024/03/20 02:27:54;;;;;;;11.73;8.60;;;7.80;99.90;;;;;;4864230;29;20190;-85
2024/03/20 02:30:20;;;;;;;11.83;8.60;;;7.80;99.90;;;;;;4864188;29;20184;-85
2024/03/20 02:32:46;;;;;;;13.13;9.10;;;7.80;99.90;;;;;;4864004;29;20194;-84
2024/03/20 02:35:12;;;;;;;15.07;8.90;;;7.80;99.90;;;;;;4880618;29;20176;-84
2024/03/20 02:37:37;;;;;;;14.93;9.23;;;7.80;99.90;;;;;;4863983;29;20601;-84
2024/03/20 02:40:05;;;;;;;13.17;9.20;;;7.80;99.90;;;;;;5182573;23;20325;-92
2024/03/20 02:42:32;;;;;;;15.07;9.53;;;7.70;99.90;;;;;;4883613;29;20219;-93
2024/03/20 02:44:58;;;;;;;12.90;9.53;;;7.70;99.90;;;;;;4883743;29;20239;-91
2024/03/20 02:47:24;;;;;;;16.73;9.73;;;7.70;99.90;;;;;;4883855;29;20175;-92
2024/03/20 02:49:52;;;;;;;14.67;10.03;;;7.70;99.90;;;;;;4883099;29;20179;-92
2024/03/20 02:52:21;;;;;;;16.47;10.20;;;7.70;99.90;;;;;;4883033;29;20705;-91
2024/03/20 02:54:47;;;;;;;16.23;9.90;;;7.60;99.90;;;;;;4883629;29;20188;-91
2024/03/20 02:57:14;;;;;;;14.03;9.33;;;7.60;99.90;;;;;;4883254;29;20506;-92
2024/03/20 02:59:39;;;;;;;14.03;9.43;;;7.60;99.90;;;;;;4883681;29;20201;-93
2024/03/20 03:02:09;;;;;;;15.70;9.67;;;7.60;99.90;;;;;;4883703;29;20183;-91
2024/03/20 03:04:35;;;;;;;12.83;9.93;;;7.50;99.90;;;;;;4883836;29;20222;-92
2024/03/20 03:07:01;;;;;;;15.37;9.93;;;7.60;99.90;;;;;;4883454;29;20521;-91
2024/03/20 03:09:27;;;;;;;14.53;9.37;;;7.60;99.90;;;;;;4883371;29;20190;-92
2024/03/20 03:12:04;;;;;;;15.27;9.37;;;7.60;99.90;;;;;;4883140;29;20639;-91
2024/03/20 03:14:30;;;;;;;14.90;9.60;;;7.60;99.90;;;;;;4883501;29;20175;-91
2024/03/20 03:16:56;;;;;;;17.80;10.20;;;7.60;99.90;;;;;;4883336;29;20186;-92
2024/03/20 03:19:22;;;;;;;17.90;10.63;;;7.60;99.90;;;;;;4883475;29;20182;-91
2024/03/20 03:22:04;;;;;;;15.60;9.93;;;7.70;99.90;;;;;;4883248;29;20285;-92
2024/03/20 03:24:30;;;;;;;16.97;9.53;;;7.60;99.90;;;;;;4886808;29;20265;-92
2024/03/20 03:26:56;;;;;;;13.13;9.77;;;7.70;99.90;;;;;;4886924;29;20266;-92
2024/03/20 03:29:22;;;;;;;16.20;10.20;;;7.70;99.90;;;;;;4887278;29;20216;-92
2024/03/20 03:31:55;;;;;;;16.67;9.97;;;7.70;99.90;;;;;;4887177;29;20202;-92
2024/03/20 03:34:20;;;;;;;15.48;9.80;;;7.70;99.90;;;;;;4887172;29;20185;-92
2024/03/20 03:36:46;;;;;;;21.57;10.70;;;7.70;99.90;;;;;;4886547;29;20246;-91
2024/03/20 03:39:12;;;;;;;19.00;9.80;;;7.70;99.90;;;;;;4887106;29;20203;-91
2024/03/20 03:41:38;;;;;;;15.30;10.90;;;7.70;99.90;;;;;;4885630;29;20754;-92
2024/03/20 03:44:03;;;;;;;14.77;10.27;;;7.70;99.90;;;;;;4902686;29;20273;-93
2024/03/20 03:46:30;;;;;;;15.67;10.77;;;7.70;99.90;;;;;;4902491;29;20191;-91
2024/03/20 03:48:55;;;;;;;16.90;10.47;;;7.60;99.90;;;;;;4902172;29;20190;-91
2024/03/20 03:51:21;;;;;;;12.73;10.13;;;7.60;99.90;;;;;;4902220;29;20183;-92
2024/03/20 03:53:47;;;;;;;17.10;11.30;;;7.60;99.90;;;;;;4902207;29;20187;-92
2024/03/20 03:56:12;;;;;;;17.00;10.93;;;7.60;99.90;;;;;;4903280;29;20541;-91
2024/03/20 03:58:38;;;;;;;15.10;10.17;;;7.50;99.90;;;;;;4902292;29;20568;-92
2024/03/20 04:01:04;;;;;;;14.40;9.50;;;7.50;99.90;;;;;;4902145;29;20187;-91
2024/03/20 04:03:30;;;;;;;14.90;10.47;;;7.50;99.90;;;;;;4886338;29;20226;-92
2024/03/20 04:05:58;;;;;;;15.57;10.50;;;7.40;99.90;;;;;;4901871;29;20234;-91
2024/03/20 04:08:23;;;;;;;13.45;10.25;;;7.40;99.90;;;;;;4901971;29;20190;-91
2024/03/20 04:10:49;;;;;;;19.30;10.10;;;7.40;99.90;;;;;;4904526;29;20198;-92
2024/03/20 04:13:20;;;;;;;14.67;10.30;;;7.50;99.90;;;;;;4901984;29;20214;-92
2024/03/20 04:15:46;;;;;;;14.13;9.90;;;7.50;99.90;;;;;;4902051;29;20179;-93
2024/03/20 04:18:12;;;;;;;14.03;9.90;;;7.50;99.90;;;;;;4901955;29;20194;-92
2024/03/20 04:20:37;;;;;;;18.13;10.77;;;7.40;99.90;;;;;;4901966;29;20614;-93
2024/03/20 04:23:09;;;;;;;16.30;10.77;;;7.40;99.90;;;;;;4902062;29;20215;-93
2024/03/20 04:25:35;;;;;;;17.37;10.27;;;7.40;99.90;;;;;;4901818;29;20270;-93
2024/03/20 04:28:01;;;;;;;17.13;10.73;;;7.30;99.90;;;;;;4903004;29;20303;-92
2024/03/20 04:30:27;;;;;;;17.53;10.13;;;7.30;99.90;;;;;;4901723;29;20187;-92
2024/03/20 04:32:55;;;;;;;19.13;10.40;;;7.30;99.90;;;;;;4901992;29;20202;-92
2024/03/20 04:35:21;;;;;;;14.77;10.27;;;7.30;99.90;;;;;;4899863;29;20195;-91
2024/03/20 04:37:46;;;;;;;20.40;12.07;;;7.30;99.90;;;;;;4901261;29;20200;-91
2024/03/20 04:40:12;;;;;;;15.00;10.23;;;7.30;99.90;;;;;;4900410;29;20282;-90
2024/03/20 04:42:44;;;;;;;15.07;9.60;;;7.30;99.90;;;;;;4882663;29;20216;-91
2024/03/20 04:45:14;;;;;;;15.97;10.57;;;7.40;99.90;;;;;;4867228;29;20208;-92
2024/03/20 04:47:40;;;;;;;17.30;10.90;;;7.30;99.90;;;;;;4883832;29;20531;-92
2024/03/20 04:50:10;;;;;;;17.27;10.50;;;7.20;99.90;;;;;;4883897;29;20255;-91
2024/03/20 04:52:38;;;;;;;16.70;10.37;;;7.20;99.90;;;;;;4867454;29;20190;-90
2024/03/20 04:55:05;;;;;;;17.30;10.73;;;7.10;99.90;;;;;;4867378;29;20501;-92
2024/03/20 04:57:31;;;;;;;13.10;9.80;;;7.10;99.90;;;;;;4866885;29;20615;-91
2024/03/20 04:59:57;;;;;;;16.47;10.17;;;7.10;99.90;;;;;;4867223;29;20231;-91
2024/03/20 05:02:25;;;;;;;16.30;11.10;;;7.20;99.90;;;;;;4866972;29;20212;-91
2024/03/20 05:04:50;;;;;;;16.33;9.90;;;7.10;99.90;;;;;;4883751;29;20177;-91
2024/03/20 05:07:16;;;;;;;16.73;9.87;;;7.10;99.90;;;;;;4883409;29;20217;-93
2024/03/20 05:09:44;;;;;;;15.13;10.33;;;7.00;99.90;;;;;;4866890;29;20196;-91
2024/03/20 05:12:10;;;;;;;15.93;10.63;;;7.00;99.90;;;;;;4875804;29;20192;-91
2024/03/20 05:14:36;;;;;;;14.80;9.43;;;7.10;99.90;;;;;;4882281;29;20187;-91
2024/03/20 05:17:02;;;;;;;14.57;9.60;;;6.90;99.90;;;;;;4876838;29;20192;-91
2024/03/20 05:19:27;;;;;;;15.87;9.90;;;6.90;99.90;;;;;;4889021;29;20589;-92
2024/03/20 05:21:53;;;;;;;14.20;9.10;;;6.90;99.90;;;;;;4875176;29;20188;-91
2024/03/20 05:24:20;;;;;;;16.83;10.37;;;6.80;99.90;;;;;;4881658;29;20530;-92
2024/03/20 05:26:46;;;;;;;13.40;9.30;;;6.80;99.90;;;;;;4881712;29;20180;-91
2024/03/20 05:29:12;;;;;;;12.87;9.87;;;6.80;99.90;;;;;;4882020;29;20209;-92
2024/03/20 05:31:42;;;;;;;16.00;9.63;;;6.60;99.90;;;;;;4881945;29;20215;-92
2024/03/20 05:34:11;;;;;;;14.97;10.20;;;6.60;99.90;;;;;;4877451;29;20654;-92
2024/03/20 05:36:38;;;;;;;15.87;10.23;;;6.60;99.90;;;;;;4881809;29;20204;-92
2024/03/20 05:39:05;;;;;;;14.40;9.77;;;6.60;99.90;;;;;;4883013;29;20188;-91
2024/03/20 05:41:31;;;;;;;17.57;10.70;;;6.70;99.90;;;;;;4881057;29;20263;-93
2024/03/20 05:43:57;;;;;;;13.60;9.43;;;6.70;99.90;;;;;;4884701;29;20219;-93
2024/03/20 05:46:25;;;;;;;15.57;9.77;;;6.70;99.90;;;;;;4884215;29;20186;-92
2024/03/20 05:48:51;;;;;;;14.83;9.80;;;6.80;99.90;;;;;;4893307;29;20211;-94
2024/03/20 05:51:17;;;;;;;14.83;10.03;;;6.90;99.90;;;;;;4900431;29;20180;-94
2024/03/20 05:53:43;;;;;;;15.90;10.27;;;6.80;99.90;;;;;;4903316;29;20223;-93
2024/03/20 05:56:08;;;;;;;18.17;10.40;;;6.90;99.90;;;;;;4903003;29;20179;-91
2024/03/20 05:58:34;;;;;;;12.97;9.20;;;6.80;99.90;;;;;;4902659;29;20191;-91
2024/03/20 06:01:00;;;;;;;17.57;10.50;;;6.90;99.90;;;;;;4903010;29;20186;-92
2024/03/20 06:03:27;;;;;;;15.20;9.93;;;6.90;99.90;;;;;;4902960;29;20519;-93
2024/03/20 06:05:53;;;;;;;17.67;11.10;;;7.00;99.90;;;;;;4903337;29;20201;-91
2024/03/20 06:08:18;;;;;;;15.37;10.27;;;7.00;99.90;;;;;;4903010;29;20576;-92
2024/03/20 06:10:44;;;;;;;15.67;10.00;;;7.10;99.90;;;;;;4894723;29;20247;-92
2024/03/20 06:13:24;;;;;;;15.40;10.03;;;7.10;99.90;;;;;;4884351;29;20184;-93
2024/03/20 06:15:50;;;;;;;12.97;10.10;;;7.20;99.90;;;;;;4884580;29;20183;-93
2024/03/20 06:18:16;;;;;;;17.53;10.37;;;7.20;99.90;;;;;;4884204;29;20690;-92
2024/03/20 06:20:44;;;;;;;15.33;10.67;;;7.20;99.90;;;;;;4884240;29;20184;-93
2024/03/20 06:23:10;;;;;;;16.23;10.17;;;7.30;99.90;;;;;;4884147;29;20230;-94
2024/03/20 06:25:36;;;;;;;14.90;10.87;;;7.30;99.90;;;;;;4884028;29;20505;-93
2024/03/20 06:28:02;;;;;;;17.97;11.57;;;7.40;99.90;;;;;;4884114;29;20190;-92
2024/03/20 06:30:28;;;;;;;16.57;10.20;;;7.40;99.90;;;;;;4883972;29;20187;-92
2024/03/20 06:33:01;;;;;;;17.37;10.47;;;7.50;99.90;;;;;;4884283;29;20191;-92
2024/03/20 06:35:28;;;;;;;17.10;11.00;;;7.50;99.90;;;;;;4900532;29;20168;-92
2024/03/20 06:37:54;;;;;;;17.03;11.57;;;7.60;99.90;;;;;;4883998;29;20319;-91
2024/03/20 06:40:20;;;;;;;18.20;11.00;;;7.60;99.90;;;;;;4884683;29;20227;-95
2024/03/20 06:42:46;;;;;;;20.90;11.70;;;7.70;99.90;;;;;;4883542;29;20327;-91
2024/03/20 06:45:12;;;;;;;16.23;10.80;;;7.70;99.90;;;;;;4883746;29;20243;-91
2024/03/20 06:47:38;;;;;;;17.73;11.85;;;7.80;99.90;;;;;;4883625;29;20211;-91
2024/03/20 06:50:08;;;;;;;16.48;10.75;;;7.90;99.90;;;;;;4883722;29;20183;-91
2024/03/20 06:52:38;;;;;;;21.03;11.50;;;7.90;99.90;;;;;;4883366;29;20179;-91
2024/03/20 06:55:17;;;;;;;16.10;10.82;;;8.00;99.90;;;;;;4883409;29;20215;-92
2024/03/20 06:57:43;;;;;;;16.50;11.57;;;8.00;99.90;;;;;;4882708;29;20514;-91
2024/03/20 07:00:17;;;;;;;15.15;11.43;;;8.10;99.90;;;;;;4883676;29;20187;-91
2024/03/20 07:02:44;;;;;;;16.75;11.55;;;8.20;99.90;;;;;;4883585;29;20271;-92
2024/03/20 07:05:13;;;;;;;18.23;11.50;;;8.20;99.90;;;;;;4883545;29;20184;-92
2024/03/20 07:07:38;;;;;;;19.17;12.23;;;8.30;99.90;;;;;;4883706;29;20274;-92
2024/03/20 07:10:05;;;;;;;19.48;11.85;;;8.30;99.90;;;;;;4883641;29;20210;-93
2024/03/20 07:12:30;;;;;;;18.48;12.07;;;8.30;99.90;;;;;;4897109;29;20274;-93
2024/03/20 07:14:57;;;;;;;16.00;11.38;;;8.40;99.90;;;;;;4893065;29;20580;-93
2024/03/20 07:17:23;;;;;;;18.25;12.15;;;8.40;99.90;;;;;;4898742;29;20183;-94
2024/03/20 07:19:53;;;;;;;16.65;11.85;;;8.50;99.90;;;;;;4891743;29;20262;-93
2024/03/20 07:22:19;;;;;;;17.00;11.40;;;8.50;99.90;;;;;;4898910;29;20179;-93
2024/03/20 07:24:53;;;;;;;17.65;10.90;;;8.60;99.90;;;;;;4900039;29;20674;-94
2024/03/20 07:27:19;;;;;;;18.90;11.25;;;8.60;99.90;;;;;;4895288;29;20179;-92
2024/03/20 07:29:45;;;;;;;16.65;11.68;;;8.70;99.90;;;;;;4898812;29;20933;-92
2024/03/20 07:32:13;;;;;;;16.95;11.07;;;8.80;99.90;;;;;;4898933;29;20528;-93
2024/03/20 07:34:43;;;;;;;19.05;11.70;;;8.90;99.90;;;;;;4898949;29;20194;-94
2024/03/20 07:37:09;;;;;;;18.45;12.35;;;9.10;99.90;;;;;;4894857;29;20194;-93
2024/03/20 07:39:36;;;;;;;19.75;11.95;;;9.20;99.90;;;;;;4898718;29;20175;-94
2024/03/20 07:42:03;;;;;;;21.75;12.07;;;9.40;99.90;;;;;;4879794;29;20520;-93
2024/03/20 07:44:31;;;;;;;20.77;12.52;;;9.50;99.90;;;;;;4881256;29;20219;-93
2024/03/20 07:46:59;;;;;;;16.63;11.57;;;9.70;99.90;;;;;;4883258;29;20258;-93
2024/03/20 07:49:25;;;;;;;20.10;12.25;;;9.80;99.90;;;;;;4883216;29;20187;-92
2024/03/20 07:51:51;;;;;;;16.75;11.07;;;9.90;99.90;;;;;;4883274;29;20183;-94
2024/03/20 07:54:23;;;;;;;17.55;11.07;;;10.00;99.90;;;;;;4883147;29;20191;-94
2024/03/20 07:56:56;;;;;;;19.05;12.23;;;10.10;99.90;;;;;;4882597;29;20176;-94
2024/03/20 07:59:23;;;;;;;17.58;11.90;;;10.20;99.90;;;;;;4883513;29;20187;-93
2024/03/20 08:01:50;;;;;;;21.55;11.63;;;10.30;99.90;;;;;;4882954;29;20686;-93
2024/03/20 08:04:17;;;;;;;23.85;11.98;;;10.40;99.90;;;;;;4883027;29;20229;-93
2024/03/20 08:06:42;;;;;;;16.50;11.80;;;10.40;99.90;;;;;;4883107;29;20251;-92
2024/03/20 08:09:09;;;;;;;18.58;11.98;;;10.40;99.90;;;;;;4884195;29;20215;-92
2024/03/20 08:11:35;;;;;;;17.70;12.20;;;10.50;99.90;;;;;;4886229;29;20191;-92
2024/03/20 08:14:13;;;;;;;22.88;11.88;;;10.60;99.90;;;;;;4886773;29;20190;-91
2024/03/20 08:16:40;;;;;;;19.02;11.45;;;10.60;99.90;;;;;;4886436;29;20225;-91
2024/03/20 08:19:06;;;;;;;20.25;11.77;;;10.70;99.90;;;;;;4886421;29;20242;-92
2024/03/20 08:21:33;;;;;;;21.67;11.07;;;10.90;99.90;;;;;;4886385;29;20529;-91
2024/03/20 08:24:00;;;;;;;20.52;11.75;;;11.00;99.90;;;;;;4885873;29;20215;-93
2024/03/20 08:26:27;;;;;;;21.92;11.85;;;11.10;99.90;;;;;;4885967;29;20529;-94
2024/03/20 08:28:53;;;;;;;17.15;11.52;;;11.10;99.90;;;;;;4903230;29;20186;-92
2024/03/20 08:31:19;;;;;;;17.92;11.52;;;11.10;99.90;;;;;;4885661;29;20270;-92
2024/03/20 08:33:45;;;;;;;18.42;11.75;;;11.10;99.90;;;;;;4885795;29;20206;-92
2024/03/20 08:36:12;;;;;;;17.50;11.13;;;11.10;99.90;;;;;;4886067;29;20611;-92
2024/03/20 08:38:37;;;;;;;17.70;11.32;;;11.20;99.90;;;;;;4886066;29;20612;-91
2024/03/20 08:41:07;;;;;;;18.48;11.38;;;11.20;99.90;;;;;;4885800;29;20294;-93
2024/03/20 08:43:33;;;;;;;17.88;11.02;;;11.20;99.90;;;;;;4885931;29;20207;-92
2024/03/20 08:46:11;;;;;;;16.50;10.50;;;11.30;99.90;;;;;;4902482;29;20680;-91
2024/03/20 08:48:37;;;;;;;17.35;10.63;;;11.40;99.90;;;;;;4885868;29;20210;-91
2024/03/20 08:51:03;;;;;;;14.50;10.45;;;11.40;99.90;;;;;;4885754;29;20583;-91
2024/03/20 08:53:31;;;;;;;18.50;12.02;;;11.40;99.90;;;;;;4885448;29;20187;-91
2024/03/20 08:55:58;;;;;;;22.67;10.80;;;11.50;99.90;;;;;;4884805;29;20193;-91
2024/03/20 08:58:24;;;;;;;16.50;11.15;;;11.40;99.90;;;;;;4885589;29;20183;-92
2024/03/20 09:00:50;;;;;;;22.35;11.70;;;11.50;99.90;;;;;;4886224;29;20195;-92
2024/03/20 09:03:15;;;;;;;17.00;10.98;;;11.50;99.90;;;;;;4885826;29;20211;-92
2024/03/20 09:05:42;;;;;;;19.35;11.88;;;11.50;99.90;;;;;;4885779;29;20183;-94
2024/03/20 09:08:08;;;;;;;17.98;11.60;;;11.60;99.90;;;;;;4885481;29;20187;-92
2024/03/20 09:10:35;;;;;;;19.30;11.13;;;11.60;99.90;;;;;;4885404;29;20198;-94
2024/03/20 09:13:01;;;;;;;16.58;11.77;;;11.60;99.90;;;;;;4885383;29;20283;-94
2024/03/20 09:15:35;;;;;;;18.92;11.20;;;11.70;99.90;;;;;;4885387;29;20717;-92
2024/03/20 09:18:01;;;;;;;15.55;10.75;;;11.70;99.90;;;;;;4884987;29;20179;-93
2024/03/20 09:20:30;;;;;;;18.83;11.73;;;11.80;99.90;;;;;;4884643;29;20187;-93
2024/03/20 09:22:57;;;;;;;22.60;12.05;;;11.90;99.90;;;;;;4885257;29;20206;-92
2024/03/20 09:25:44;;;;;;;19.92;11.50;;;12.00;99.90;;;;;;4901909;29;20179;-92
2024/03/20 09:28:11;;;;;;;16.23;10.13;;;12.10;99.90;;;;;;4885220;29;20179;-92
2024/03/20 09:30:37;;;;;;;16.15;10.88;;;12.20;99.90;;;;;;4885116;29;20235;-93
2024/03/20 09:33:03;;;;;;;23.00;11.30;;;12.20;99.90;;;;;;4885125;29;20187;-91
2024/03/20 09:35:32;;;;;;;16.17;10.63;;;12.30;99.90;;;;;;4885100;29;20531;-93
2024/03/20 09:37:58;;;;;;;23.75;11.57;;;12.40;99.90;;;;;;4885169;29;20183;-94
2024/03/20 09:40:25;;;;;;;17.23;10.55;;;12.50;99.90;;;;;;4884930;29;20231;-92
2024/03/20 09:42:52;;;;;;;18.52;10.80;;;12.60;99.90;;;;;;4884626;29;20298;-93
2024/03/20 09:45:25;;;;;;;21.20;11.48;;;12.60;99.90;;;;;;4885000;29;20557;-91
2024/03/20 09:47:52;;;;;;;22.10;11.57;;;12.70;99.90;;;;;;4884638;29;20239;-92
2024/03/20 09:50:19;;;;;;;16.33;9.90;;;12.80;99.90;;;;;;4884567;29;20187;-92
2024/03/20 09:52:47;;;;;;;16.13;10.43;;;12.90;99.90;;;;;;4884926;29;20186;-93
2024/03/20 09:55:17;;;;;;;17.55;11.05;;;13.00;99.90;;;;;;4884132;29;20183;-94
2024/03/20 09:57:45;;;;;;;21.30;11.15;;;13.10;99.90;;;;;;4884175;29;20270;-93
2024/03/20 10:00:16;;;;;;;18.15;10.82;;;13.10;99.90;;;;;;4884380;29;20187;-91
2024/03/20 10:02:52;;;;;;;16.65;10.30;;;13.20;99.90;;;;;;4885062;29;20175;-94
2024/03/20 10:05:18;;;;;;;18.15;11.20;;;13.30;99.90;;;;;;4885041;29;20233;-93
2024/03/20 10:07:45;;;;;;;16.40;10.27;;;13.40;99.90;;;;;;4884831;29;20262;-93
2024/03/20 10:10:15;;;;;;;19.23;10.75;;;13.40;99.90;;;;;;4884471;29;20246;-93
2024/03/20 10:12:50;;;;;;;22.38;10.32;;;13.50;99.90;;;;;;4884235;29;20179;-92
2024/03/20 10:15:24;;;;;;;22.45;10.40;;;13.60;99.90;;;;;;4884493;29;20207;-89
2024/03/20 10:17:50;;;;;;;18.80;10.88;;;13.70;99.90;;;;;;4884280;29;20183;-92
2024/03/20 10:20:21;;;;;;;17.05;9.75;;;13.70;99.90;;;;;;4880345;29;20188;-90
2024/03/20 10:22:49;;;;;;;17.80;9.93;;;13.70;99.90;;;;;;4872077;29;20190;-90
2024/03/20 10:25:17;;;;;;;16.13;8.98;;;13.80;99.90;;;;;;4898059;29;20187;-92
2024/03/20 10:27:50;;;;;;;21.30;10.15;;;13.80;99.90;;;;;;4893462;29;20191;-94
2024/03/20 10:30:18;;;;;;;14.45;9.40;;;13.90;99.90;;;;;;4887393;29;20195;-92
2024/03/20 10:32:52;;;;;;;15.45;9.15;;;14.20;99.90;;;;;;4898187;29;20194;-95
2024/03/20 10:35:23;;;;;;;17.70;8.95;;;14.50;99.90;;;;;;4875966;29;20209;-90
2024/03/20 10:37:50;;;;;;;15.63;9.38;;;14.70;99.90;;;;;;4883385;29;20592;-95
2024/03/20 10:40:20;;;;;;;14.35;8.57;;;15.00;99.90;;;;;;4889432;29;20232;-94
2024/03/20 10:42:48;;;;;;;14.75;8.68;;;15.30;99.90;;;;;;4876269;29;20195;-92
2024/03/20 10:45:18;;;;;;;14.13;8.85;;;15.50;99.90;;;;;;4886145;29;20200;-92
2024/03/20 10:47:45;;;;;;;13.63;7.90;;;15.70;99.90;;;;;;4874206;29;20187;-90
2024/03/20 10:50:16;;;;;;;12.32;7.38;;;15.70;99.90;;;;;;4884210;29;20199;-92
2024/03/20 10:52:43;;;;;;;12.00;7.43;;;15.80;99.90;;;;;;4883300;29;20285;-91
2024/03/20 10:55:12;;;;;;;14.93;8.18;;;15.90;99.90;;;;;;4899189;29;20275;-91
2024/03/20 10:57:38;;;;;;;16.38;7.45;;;15.90;99.90;;;;;;4899002;29;20175;-88
2024/03/20 11:00:09;;;;;;;12.73;7.90;;;16.00;99.90;;;;;;4899165;29;20288;-91
2024/03/20 11:02:36;;;;;;;9.82;6.82;;;16.10;99.90;;;;;;4899164;29;20171;-90
2024/03/20 11:05:39;;;;;;;12.88;7.38;;;16.20;99.90;;;;;;4899020;29;20183;-89
2024/03/20 11:08:07;;;;;;;13.77;8.18;;;16.30;99.90;;;;;;4899102;29;20986;-91
2024/03/20 11:10:35;;;;;;;13.82;8.10;;;16.20;99.90;;;;;;4897066;29;20198;-90
2024/03/20 11:13:01;;;;;;;12.38;8.05;;;16.20;99.90;;;;;;4899978;29;20183;-91
2024/03/20 11:15:36;;;;;;;13.45;7.82;;;16.40;99.90;;;;;;4899085;29;20182;-92
2024/03/20 11:18:04;;;;;;;14.07;7.45;;;16.40;99.90;;;;;;4899459;29;20186;-91
2024/03/20 11:20:34;;;;;;;12.77;7.25;;;16.60;99.90;;;;;;4899090;29;20568;-91
2024/03/20 11:23:06;;;;;;;10.43;7.00;;;16.70;99.90;;;;;;4898996;29;20207;-92
2024/03/20 11:25:36;;;;;;;11.35;7.60;;;16.80;99.90;;;;;;4899024;29;20183;-92
2024/03/20 11:28:03;;;;;;;10.70;6.72;;;16.80;99.90;;;;;;4898339;29;20175;-90
2024/03/20 11:30:28;;;;;;;13.77;5.78;;;17.10;99.90;;;;;;4898737;29;20187;-89
2024/03/20 11:32:55;;;;;;;8.55;6.10;;;17.20;99.90;;;;;;4898783;29;20187;-90
2024/03/20 11:35:23;;;;;;;7.95;5.18;;;17.20;99.90;;;;;;4898897;29;20183;-92
2024/03/20 11:37:49;;;;;;;10.52;5.45;;;17.20;99.90;;;;;;4898624;29;20183;-90
2024/03/20 11:40:15;;;;;;;8.15;6.00;;;17.00;99.90;;;;;;4897358;29;20230;-90
2024/03/20 11:42:41;;;;;;;7.90;3.90;;;17.00;99.90;;;;;;4882985;29;20243;-92
2024/03/20 11:45:13;;;;;;;7.57;4.28;;;16.80;99.90;;;;;;4886178;29;20193;-89
2024/03/20 11:47:39;;;;;;;6.97;4.43;;;16.70;99.90;;;;;;4903801;29;20183;-90
2024/03/20 11:50:06;;;;;;;8.80;3.95;;;16.60;99.90;;;;;;4887191;29;20191;-90
2024/03/20 11:52:32;;;;;;;8.55;4.80;;;16.50;99.90;;;;;;4886993;29;20175;-91
2024/03/20 11:54:58;;;;;;;9.10;5.05;;;16.40;99.90;;;;;;4887020;29;20645;-90
2024/03/20 11:57:25;;;;;;;8.30;5.57;;;16.40;99.90;;;;;;4886322;29;20183;-91
2024/03/20 11:59:51;;;;;;;8.38;5.50;;;16.40;99.90;;;;;;4887161;29;20182;-91
2024/03/20 12:02:19;;;;;;;9.70;5.82;;;16.30;99.90;;;;;;4886799;29;20278;-88
2024/03/20 12:04:46;;;;;;;8.80;5.82;;;16.30;99.90;;;;;;4886409;29;20211;-90
2024/03/20 12:07:35;;;;;;;12.40;6.22;;;16.20;99.90;;;;;;4903437;29;20176;-91
2024/03/20 12:10:01;;;;;;;10.90;6.57;;;16.30;99.90;;;;;;4886827;29;20197;-92
2024/03/20 12:12:26;;;;;;;13.85;6.50;;;16.40;99.90;;;;;;4886842;29;20611;-91
2024/03/20 12:14:54;;;;;;;10.57;6.85;;;16.60;99.90;;;;;;4903421;29;20603;-92
2024/03/20 12:17:22;;;;;;;11.13;7.43;;;16.80;99.90;;;;;;4886065;29;20568;-93
2024/03/20 12:19:48;;;;;;;11.48;6.75;;;17.00;99.90;;;;;;4903451;29;20163;-92
2024/03/20 12:22:15;;;;;;;12.55;6.85;;;17.20;99.90;;;;;;4886856;29;20179;-90
2024/03/20 12:24:41;;;;;;;10.40;5.75;;;17.30;99.90;;;;;;4886546;29;20358;-91
2024/03/20 12:27:15;;;;;;;10.23;6.25;;;17.20;99.90;;;;;;4903957;29;20327;-94
2024/03/20 12:29:44;;;;;;;10.38;5.80;;;17.10;99.90;;;;;;4886550;29;20183;-95
2024/03/20 12:32:12;;;;;;;10.50;6.32;;;17.10;99.90;;;;;;4886209;29;20333;-88
2024/03/20 12:34:38;;;;;;;10.00;6.13;;;17.00;99.90;;;;;;4885808;29;20658;-90
2024/03/20 12:37:09;;;;;;;11.98;6.28;;;17.00;99.90;;;;;;4885961;29;20553;-93
2024/03/20 12:39:35;;;;;;;12.10;5.60;;;17.00;99.90;;;;;;4886073;29;20266;-91